createdAt,value
2022-11-20T00:01:44.331Z,19.63
2022-11-20T00:04:13.900Z,17.80
2022-11-20T00:06:42.935Z,18.43
2022-11-20T00:09:13.558Z,19.23
2022-11-20T00:11:42.293Z,17.53
2022-11-20T00:14:12.758Z,19.77
2022-11-20T00:16:41.505Z,19.03
2022-11-20T00:19:10.288Z,19.63
2022-11-20T00:21:39.067Z,22.47
2022-11-20T00:24:12.891Z,22.80
2022-11-20T00:26:41.681Z,21.23
2022-11-20T00:29:12.285Z,22.27
2022-11-20T00:31:41.072Z,20.40
2022-11-20T00:34:09.828Z,22.60
2022-11-20T00:36:38.589Z,20.83
2022-11-20T00:39:07.501Z,17.00
2022-11-20T00:41:38.118Z,18.27
2022-11-20T00:44:07.488Z,20.53
2022-11-20T00:46:36.635Z,20.40
2022-11-20T00:49:05.366Z,20.90
2022-11-20T00:51:34.135Z,18.47
2022-11-20T00:54:03.196Z,18.77
2022-11-20T00:56:31.947Z,21.23
2022-11-20T00:59:03.179Z,20.37
2022-11-20T01:01:32.481Z,19.50
2022-11-20T01:04:02.872Z,18.50
2022-11-20T01:06:34.531Z,20.53
2022-11-20T01:09:08.301Z,19.13
2022-11-20T01:11:39.873Z,18.07
2022-11-20T01:14:14.613Z,16.93
2022-11-20T01:16:46.318Z,19.03
2022-11-20T01:19:18.953Z,20.10
2022-11-20T01:21:50.964Z,17.57
2022-11-20T01:24:23.197Z,16.07
2022-11-20T01:26:53.601Z,14.40
2022-11-20T01:29:26.503Z,15.87
2022-11-20T01:31:56.417Z,13.33
2022-11-20T01:34:26.047Z,15.70
2022-11-20T01:36:55.841Z,15.03
2022-11-20T01:39:28.340Z,14.90
2022-11-20T01:42:15.533Z,15.37
2022-11-20T01:44:56.336Z,15.30
2022-11-20T01:47:34.419Z,16.47
2022-11-20T01:50:13.945Z,14.07
2022-11-20T01:52:51.789Z,16.77
2022-11-20T01:55:27.888Z,15.13
2022-11-20T01:57:58.194Z,14.40
2022-11-20T02:00:28.448Z,13.47
2022-11-20T02:03:00.875Z,13.97
2022-11-20T02:05:39.305Z,13.23
2022-11-20T02:08:09.039Z,15.30
2022-11-20T02:10:38.110Z,14.57
2022-11-20T02:13:25.067Z,15.67
2022-11-20T02:15:55.877Z,13.97
2022-11-20T02:18:26.144Z,14.93
2022-11-20T02:21:04.267Z,15.90
2022-11-20T02:23:41.180Z,12.57
2022-11-20T02:26:16.607Z,13.90
2022-11-20T02:28:45.291Z,15.20
2022-11-20T02:31:14.057Z,14.73
2022-11-20T02:33:42.725Z,13.73
2022-11-20T02:36:18.497Z,15.47
2022-11-20T02:38:47.569Z,14.37
2022-11-20T02:41:17.686Z,15.00
2022-11-20T02:43:46.870Z,13.23
2022-11-20T02:46:15.862Z,14.27
2022-11-20T02:48:44.551Z,14.00
2022-11-20T02:51:13.278Z,12.37
2022-11-20T02:53:42.197Z,14.63
2022-11-20T02:56:10.918Z,12.13
2022-11-20T02:58:41.029Z,12.17
2022-11-20T03:01:09.956Z,13.63
2022-11-20T03:03:38.794Z,13.07
2022-11-20T03:06:08.748Z,13.03
2022-11-20T03:08:37.851Z,13.63
2022-11-20T03:11:09.098Z,12.67
2022-11-20T03:13:38.296Z,13.27
2022-11-20T03:16:24.520Z,14.67
2022-11-20T03:18:55.573Z,11.40
2022-11-20T03:21:24.395Z,15.70
2022-11-20T03:23:53.072Z,14.00
2022-11-20T03:26:24.308Z,11.77
2022-11-20T03:28:56.011Z,13.87
2022-11-20T03:31:29.554Z,14.03
2022-11-20T03:34:00.218Z,13.03
2022-11-20T03:36:30.152Z,12.77
2022-11-20T03:38:59.805Z,11.53
2022-11-20T03:41:31.169Z,13.63
2022-11-20T03:44:03.558Z,12.77
2022-11-20T03:46:34.254Z,11.40
2022-11-20T03:49:03.472Z,10.43
2022-11-20T03:51:34.671Z,10.67
2022-11-20T03:54:05.928Z,12.13
2022-11-20T03:56:37.815Z,11.97
2022-11-20T03:59:07.534Z,12.43
2022-11-20T04:01:39.180Z,10.33
2022-11-20T04:04:08.124Z,10.63
2022-11-20T04:06:39.896Z,13.13
2022-11-20T04:09:09.323Z,11.43
2022-11-20T04:11:41.994Z,11.53
2022-11-20T04:14:17.688Z,12.10
2022-11-20T04:16:47.788Z,11.33
2022-11-20T04:19:19.034Z,10.40
2022-11-20T04:21:48.183Z,12.07
2022-11-20T04:24:16.983Z,12.83
2022-11-20T04:26:45.715Z,11.47
2022-11-20T04:29:14.984Z,9.20
2022-11-20T04:31:43.758Z,11.40
2022-11-20T04:34:14.985Z,11.10
2022-11-20T04:36:43.693Z,11.60
2022-11-20T04:39:17.937Z,12.27
2022-11-20T04:41:47.196Z,11.07
2022-11-20T04:44:16.047Z,12.53
2022-11-20T04:46:45.329Z,11.83
2022-11-20T04:49:15.953Z,9.93
2022-11-20T04:51:44.807Z,10.73
2022-11-20T04:54:14.689Z,11.23
2022-11-20T04:56:44.138Z,10.50
2022-11-20T04:59:13.661Z,10.63
2022-11-20T05:01:42.889Z,11.63
2022-11-20T05:04:11.678Z,9.23
2022-11-20T05:06:41.802Z,10.50
2022-11-20T05:09:10.696Z,10.60
2022-11-20T05:11:39.589Z,10.43
2022-11-20T05:14:08.418Z,10.83
2022-11-20T05:16:37.776Z,10.43
2022-11-20T05:19:06.536Z,11.20
2022-11-20T05:21:35.270Z,11.30
2022-11-20T05:24:07.062Z,12.57
2022-11-20T05:26:37.123Z,10.07
2022-11-20T05:29:05.828Z,8.80
2022-11-20T05:31:34.829Z,10.03
2022-11-20T05:34:04.425Z,12.67
2022-11-20T05:36:33.859Z,18.20
2022-11-20T05:39:04.529Z,27.30
2022-11-20T05:41:35.073Z,24.73
2022-11-20T05:44:04.241Z,17.17
2022-11-20T05:46:33.152Z,13.97
2022-11-20T05:49:02.214Z,12.80
2022-11-20T05:51:31.163Z,10.50
2022-11-20T05:54:00.334Z,10.27
2022-11-20T05:56:30.796Z,11.47
2022-11-20T05:58:59.568Z,9.40
2022-11-20T06:01:28.750Z,10.17
2022-11-20T06:03:57.568Z,12.50
2022-11-20T06:06:27.026Z,10.77
2022-11-20T06:08:56.742Z,10.30
2022-11-20T06:11:25.436Z,9.37
2022-11-20T06:13:55.592Z,9.67
2022-11-20T06:16:24.797Z,14.47
2022-11-20T06:18:53.645Z,10.60
2022-11-20T06:21:24.984Z,9.00
2022-11-20T06:23:55.898Z,10.30
2022-11-20T06:26:28.641Z,7.27
2022-11-20T06:28:59.698Z,9.67
2022-11-20T06:31:30.575Z,8.17
2022-11-20T06:33:59.837Z,10.17
2022-11-20T06:36:29.185Z,8.80
2022-11-20T06:38:59.024Z,10.13
2022-11-20T06:41:30.081Z,8.83
2022-11-20T06:44:00.722Z,8.87
2022-11-20T06:46:29.658Z,8.40
2022-11-20T06:48:59.358Z,10.03
2022-11-20T06:51:28.168Z,8.30
2022-11-20T06:53:57.077Z,8.30
2022-11-20T06:56:25.973Z,8.90
2022-11-20T06:58:54.681Z,12.13
2022-11-20T07:01:25.466Z,9.73
2022-11-20T07:03:54.724Z,49.90
2022-11-20T07:06:23.848Z,75.20
2022-11-20T07:08:54.448Z,32.93
2022-11-20T07:11:23.239Z,22.83
2022-11-20T07:13:52.219Z,90.17
2022-11-20T07:16:21.019Z,42.60
2022-11-20T07:18:51.393Z,29.73
2022-11-20T07:21:22.136Z,35.30
2022-11-20T07:23:51.048Z,100.83
2022-11-20T07:26:20.433Z,146.80
2022-11-20T07:28:49.180Z,27.03
2022-11-20T07:31:19.665Z,20.60
2022-11-20T07:33:51.035Z,14.50
2022-11-20T07:36:23.079Z,14.57
2022-11-20T07:38:53.678Z,21.30
2022-11-20T07:41:22.921Z,14.80
2022-11-20T07:43:52.404Z,17.90
2022-11-20T07:46:22.298Z,17.17
2022-11-20T07:48:52.453Z,33.20
2022-11-20T07:51:21.280Z,39.40
2022-11-20T07:53:52.543Z,45.70
2022-11-20T07:56:21.373Z,46.60
2022-11-20T07:58:50.142Z,42.00
2022-11-20T08:01:18.878Z,45.50
2022-11-20T08:03:48.093Z,19.93
2022-11-20T08:06:19.636Z,13.70
2022-11-20T08:08:49.152Z,10.77
2022-11-20T08:11:35.949Z,13.47
2022-11-20T08:14:16.917Z,13.27
2022-11-20T08:16:48.113Z,10.80
2022-11-20T08:19:20.827Z,13.97
2022-11-20T08:21:51.413Z,16.53
2022-11-20T08:24:20.214Z,16.47
2022-11-20T08:26:49.171Z,21.70
2022-11-20T08:29:18.090Z,23.17
2022-11-20T08:31:47.907Z,19.30
2022-11-20T08:34:19.149Z,15.63
2022-11-20T08:36:48.413Z,15.67
2022-11-20T08:39:18.882Z,14.33
2022-11-20T08:41:47.692Z,11.93
2022-11-20T08:44:16.882Z,15.07
2022-11-20T08:46:46.836Z,15.93
2022-11-20T08:49:16.964Z,15.70
2022-11-20T08:51:46.117Z,16.30
2022-11-20T08:54:16.724Z,15.80
2022-11-20T08:56:47.067Z,15.77
2022-11-20T08:59:43.473Z,17.50
2022-11-20T09:02:05.165Z,15.23
2022-11-20T09:04:34.025Z,17.03
2022-11-20T09:07:03.416Z,17.03
2022-11-20T09:09:32.183Z,17.63
2022-11-20T09:12:02.614Z,17.87
2022-11-20T09:14:31.464Z,20.37
2022-11-20T09:17:00.303Z,20.87
2022-11-20T09:19:36.713Z,22.83
2022-11-20T09:22:05.646Z,25.57
2022-11-20T09:24:34.930Z,28.00
2022-11-20T09:27:08.555Z,23.83
2022-11-20T09:29:37.387Z,20.57
2022-11-20T09:32:07.096Z,21.13
2022-11-20T09:34:35.832Z,21.70
2022-11-20T09:37:07.610Z,20.37
2022-11-20T09:39:40.017Z,19.17
2022-11-20T09:42:34.627Z,20.53
2022-11-20T09:45:21.017Z,18.33
2022-11-20T09:48:08.079Z,18.17
2022-11-20T09:50:48.862Z,21.37
2022-11-20T09:53:30.533Z,21.20
2022-11-20T09:56:02.140Z,21.70
2022-11-20T09:58:41.374Z,21.57
2022-11-20T10:01:16.379Z,24.27
2022-11-20T10:03:58.272Z,22.50
2022-11-20T10:06:34.913Z,20.87
2022-11-20T10:09:21.414Z,20.77
2022-11-20T10:12:07.792Z,20.03
2022-11-20T10:14:56.261Z,17.97
2022-11-20T10:17:54.392Z,17.30
2022-11-20T10:20:38.284Z,16.37
2022-11-20T10:23:36.001Z,19.10
2022-11-20T10:26:18.695Z,17.33
2022-11-20T10:29:12.761Z,16.47
2022-11-20T10:31:46.815Z,16.17
2022-11-20T10:34:25.079Z,15.87
2022-11-20T10:37:04.774Z,13.57
2022-11-20T10:39:44.986Z,12.53
2022-11-20T10:42:21.898Z,14.00
2022-11-20T10:45:06.155Z,12.07
2022-11-20T10:47:37.878Z,10.80
2022-11-20T10:50:16.468Z,12.80
2022-11-20T10:53:01.457Z,12.97
2022-11-20T10:55:43.308Z,11.57
2022-11-20T10:58:24.768Z,12.67
2022-11-20T11:00:53.501Z,11.13
2022-11-20T11:03:31.467Z,14.83
2022-11-20T11:06:11.523Z,14.00
2022-11-20T11:08:42.292Z,17.57
2022-11-20T11:11:25.436Z,18.03
2022-11-20T11:13:55.383Z,20.87
2022-11-20T11:16:28.416Z,20.90
2022-11-20T11:19:09.632Z,19.07
2022-11-20T11:21:42.743Z,18.27
2022-11-20T11:24:41.587Z,14.50
2022-11-20T11:27:18.944Z,11.07
2022-11-20T11:29:48.996Z,18.73
2022-11-20T11:32:23.161Z,14.73
2022-11-20T11:35:05.613Z,16.30
2022-11-20T11:37:41.231Z,16.57
2022-11-20T11:40:29.831Z,13.70
2022-11-20T11:43:04.511Z,14.97
2022-11-20T11:45:34.597Z,14.90
2022-11-20T11:48:12.741Z,16.77
2022-11-20T11:50:52.995Z,13.93
2022-11-20T11:53:27.158Z,15.30
2022-11-20T11:56:06.320Z,17.40
2022-11-20T11:58:46.984Z,16.20
2022-11-20T12:01:34.304Z,15.43
2022-11-20T12:04:16.085Z,14.03
2022-11-20T12:06:54.209Z,14.20
2022-11-20T12:09:37.031Z,16.67
2022-11-20T12:12:12.951Z,14.77
2022-11-20T12:14:45.241Z,15.50
2022-11-20T12:17:16.279Z,82.50
2022-11-20T12:19:45.220Z,28.87
2022-11-20T12:22:31.577Z,22.10
2022-11-20T12:25:10.274Z,18.73
2022-11-20T12:28:26.500Z,18.93
2022-11-20T12:31:29.850Z,20.37
2022-11-20T12:34:26.412Z,29.40
2022-11-20T12:37:07.711Z,22.60
2022-11-20T12:39:50.963Z,19.03
2022-11-20T12:43:10.905Z,18.80
2022-11-20T12:46:11.000Z,17.17
2022-11-20T12:49:04.810Z,18.23
2022-11-20T12:51:54.071Z,17.23
2022-11-20T12:54:57.099Z,16.80
2022-11-20T12:57:40.104Z,19.63
2022-11-20T13:00:17.853Z,12.53
2022-11-20T13:03:24.382Z,13.37
2022-11-20T13:06:14.425Z,13.50
2022-11-20T13:08:49.543Z,15.93
2022-11-20T13:11:31.059Z,11.50
2022-11-20T13:14:26.918Z,15.07
2022-11-20T13:17:07.689Z,13.40
2022-11-20T13:19:37.365Z,12.13
2022-11-20T13:22:06.149Z,11.60
2022-11-20T13:24:36.109Z,13.03
2022-11-20T13:27:24.176Z,11.03
2022-11-20T13:30:18.180Z,11.10
2022-11-20T13:32:57.118Z,9.20
2022-11-20T13:35:34.198Z,11.20
2022-11-20T13:38:07.706Z,10.93
2022-11-20T13:40:40.216Z,11.07
2022-11-20T13:43:25.502Z,12.03
2022-11-20T13:46:00.585Z,10.93
2022-11-20T13:48:34.554Z,10.70
2022-11-20T13:51:26.581Z,11.30
2022-11-20T13:54:40.286Z,12.50
2022-11-20T13:57:36.007Z,11.80
2022-11-20T14:00:16.915Z,11.23
2022-11-20T14:02:49.043Z,20.77
2022-11-20T14:05:24.698Z,11.43
2022-11-20T14:07:56.212Z,13.93
2022-11-20T14:10:32.095Z,11.83
2022-11-20T14:13:12.239Z,13.33
2022-11-20T14:15:45.291Z,12.03
2022-11-20T14:18:21.291Z,12.60
2022-11-20T14:20:50.570Z,15.00
2022-11-20T14:23:30.213Z,16.80
2022-11-20T14:25:59.820Z,12.97
2022-11-20T14:28:33.221Z,12.93
2022-11-20T14:31:03.881Z,15.73
2022-11-20T14:33:37.277Z,17.83
2022-11-20T14:36:06.792Z,13.60
2022-11-20T14:38:36.853Z,13.80
2022-11-20T14:41:11.709Z,13.70
2022-11-20T14:43:41.488Z,15.80
2022-11-20T14:46:14.693Z,14.20
2022-11-20T14:48:49.248Z,14.47
2022-11-20T14:51:36.290Z,13.63
2022-11-20T14:54:13.495Z,14.53
2022-11-20T14:56:43.037Z,14.50
2022-11-20T14:59:12.286Z,15.03
2022-11-20T15:01:56.175Z,14.87
2022-11-20T15:04:25.995Z,15.30
2022-11-20T15:06:58.433Z,14.33
2022-11-20T15:09:28.489Z,14.40
2022-11-20T15:12:01.168Z,13.67
2022-11-20T15:14:36.510Z,15.00
2022-11-20T15:17:14.310Z,14.97
2022-11-20T15:19:43.319Z,15.47
2022-11-20T15:22:17.189Z,14.97
2022-11-20T15:24:46.002Z,17.47
2022-11-20T15:27:14.991Z,16.20
2022-11-20T15:29:44.948Z,16.67
2022-11-20T15:32:15.187Z,14.23
2022-11-20T15:34:44.839Z,16.53
2022-11-20T15:37:14.645Z,16.63
2022-11-20T15:39:43.642Z,14.70
2022-11-20T15:42:13.210Z,15.10
2022-11-20T15:44:43.028Z,15.80
2022-11-20T15:47:12.766Z,15.30
2022-11-20T15:49:43.201Z,15.57
2022-11-20T15:52:14.096Z,17.20
2022-11-20T15:54:43.513Z,16.17
2022-11-20T15:57:14.458Z,16.23
2022-11-20T15:59:43.515Z,17.67
2022-11-20T16:02:18.908Z,18.33
2022-11-20T16:04:49.636Z,15.50
2022-11-20T16:07:19.205Z,17.93
2022-11-20T16:09:49.543Z,17.87
2022-11-20T16:12:33.064Z,14.93
2022-11-20T16:15:30.710Z,16.07
2022-11-20T16:18:00.972Z,17.07
2022-11-20T16:20:31.800Z,16.73
2022-11-20T16:23:01.158Z,13.30
2022-11-20T16:25:30.347Z,15.03
2022-11-20T16:28:00.676Z,13.50
2022-11-20T16:30:29.745Z,14.10
2022-11-20T16:32:58.605Z,15.37
2022-11-20T16:35:30.950Z,15.43
2022-11-20T16:38:01.784Z,14.90
2022-11-20T16:40:31.841Z,18.20
2022-11-20T16:43:12.268Z,14.57
2022-11-20T16:45:45.298Z,16.50
2022-11-20T16:48:18.394Z,16.90
2022-11-20T16:50:55.209Z,16.20
2022-11-20T16:53:24.434Z,18.00
2022-11-20T16:55:53.315Z,16.80
2022-11-20T16:58:23.071Z,16.47
2022-11-20T17:00:52.125Z,17.80
2022-11-20T17:03:24.191Z,15.10
2022-11-20T17:05:54.420Z,18.90
2022-11-20T17:08:23.205Z,15.47
2022-11-20T17:10:51.990Z,19.27
2022-11-20T17:13:20.747Z,16.90
2022-11-20T17:15:49.953Z,18.00
2022-11-20T17:18:18.768Z,20.13
2022-11-20T17:20:54.957Z,22.30
2022-11-20T17:23:23.679Z,22.03
2022-11-20T17:25:52.345Z,19.67
2022-11-20T17:28:21.034Z,19.67
2022-11-20T17:30:49.710Z,17.97
2022-11-20T17:33:18.434Z,16.33
2022-11-20T17:35:47.214Z,22.13
2022-11-20T17:38:17.321Z,21.57
2022-11-20T17:40:46.423Z,20.53
2022-11-20T17:43:15.254Z,22.40
2022-11-20T17:45:45.034Z,19.73
2022-11-20T17:48:13.947Z,19.33
2022-11-20T17:50:42.750Z,17.93
2022-11-20T17:53:11.467Z,17.33
2022-11-20T17:55:58.884Z,20.53
2022-11-20T17:58:29.385Z,19.20
2022-11-20T18:01:05.202Z,23.33
2022-11-20T18:03:33.946Z,17.70
2022-11-20T18:06:11.711Z,18.57
2022-11-20T18:08:41.224Z,17.77
2022-11-20T18:11:18.329Z,20.53
2022-11-20T18:14:07.268Z,19.63
2022-11-20T18:16:39.484Z,17.73
2022-11-20T18:19:08.246Z,17.77
2022-11-20T18:21:37.140Z,17.87
2022-11-20T18:24:07.218Z,20.20
2022-11-20T18:26:42.782Z,18.70
2022-11-20T18:29:15.355Z,18.73
2022-11-20T18:31:44.333Z,18.43
2022-11-20T18:34:14.284Z,20.87
2022-11-20T18:36:45.699Z,22.77
2022-11-20T18:39:16.418Z,19.83
2022-11-20T18:42:05.249Z,20.50
2022-11-20T18:44:55.719Z,19.00
2022-11-20T18:47:29.769Z,16.57
2022-11-20T18:50:01.613Z,18.00
2022-11-20T18:52:35.335Z,19.60
2022-11-20T18:55:07.433Z,17.23
2022-11-20T18:57:39.025Z,20.07
2022-11-20T19:00:10.364Z,17.13
2022-11-20T19:02:42.497Z,18.13
2022-11-20T19:05:12.774Z,16.40
2022-11-20T19:07:42.510Z,17.53
2022-11-20T19:10:11.984Z,18.93
2022-11-20T19:12:43.315Z,16.83
2022-11-20T19:15:12.744Z,17.60
2022-11-20T19:17:41.899Z,18.33
2022-11-20T19:20:12.071Z,18.77
2022-11-20T19:22:40.754Z,18.63
2022-11-20T19:25:10.869Z,15.87
2022-11-20T19:27:39.845Z,18.87
2022-11-20T19:30:12.277Z,17.13
2022-11-20T19:32:42.217Z,17.27
2022-11-20T19:35:11.211Z,16.10
2022-11-20T19:37:40.294Z,19.07
2022-11-20T19:40:10.451Z,16.30
2022-11-20T19:42:39.606Z,20.20
2022-11-20T19:45:11.242Z,18.80
2022-11-20T19:50:29.460Z,21.83
2022-11-20T19:52:59.031Z,22.30
2022-11-20T19:55:28.408Z,24.73
2022-11-20T19:57:58.299Z,22.60
2022-11-20T20:00:32.785Z,23.17
2022-11-20T20:03:02.574Z,22.57
2022-11-20T20:05:32.624Z,23.20
2022-11-20T20:08:01.436Z,23.50
2022-11-20T20:10:30.504Z,23.77
2022-11-20T20:12:59.674Z,29.77
2022-11-20T20:15:30.279Z,35.53
2022-11-20T20:17:59.493Z,24.27
2022-11-20T20:20:28.872Z,26.57
2022-11-20T20:22:57.850Z,25.67
2022-11-20T20:25:26.833Z,26.77
2022-11-20T20:27:55.520Z,23.30
2022-11-20T20:30:24.902Z,24.23
2022-11-20T20:32:56.535Z,23.70
2022-11-20T20:35:25.628Z,22.87
2022-11-20T20:37:54.503Z,23.00
2022-11-20T20:40:23.405Z,25.90
2022-11-20T20:42:52.177Z,21.93
2022-11-20T20:45:20.958Z,22.80
2022-11-20T20:47:49.791Z,22.03
2022-11-20T20:50:20.163Z,19.87
2022-11-20T20:52:49.319Z,24.73
2022-11-20T20:55:18.334Z,22.80
2022-11-20T20:57:47.241Z,22.97
2022-11-20T21:00:17.471Z,32.47
2022-11-20T21:02:46.156Z,23.87
2022-11-20T21:05:15.054Z,25.60
2022-11-20T21:07:59.043Z,21.60
2022-11-20T21:10:28.240Z,21.33
2022-11-20T21:12:57.128Z,24.60
2022-11-20T21:15:26.989Z,22.27
2022-11-20T21:17:55.737Z,23.80
2022-11-20T21:20:41.949Z,24.73
2022-11-20T21:23:12.724Z,21.50
2022-11-20T21:25:43.713Z,23.77
2022-11-20T21:28:17.854Z,21.37
2022-11-20T21:30:50.088Z,26.13
2022-11-20T21:33:18.789Z,22.27
2022-11-20T21:35:47.527Z,22.53
2022-11-20T21:38:17.634Z,20.80
2022-11-20T21:40:46.699Z,22.23
2022-11-20T21:43:15.851Z,24.00
2022-11-20T21:45:44.613Z,24.93
2022-11-20T21:48:13.331Z,23.07
2022-11-20T21:50:42.166Z,25.20
2022-11-20T21:53:10.920Z,24.27
2022-11-20T21:55:41.027Z,24.20
2022-11-20T21:58:09.770Z,27.67
2022-11-20T22:00:38.490Z,25.63
2022-11-20T22:03:07.319Z,24.77
2022-11-20T22:05:36.064Z,26.10
2022-11-20T22:08:04.972Z,25.80
2022-11-20T22:10:33.720Z,31.73
2022-11-20T22:13:17.704Z,29.53
2022-11-20T22:16:00.460Z,27.60
2022-11-20T22:18:29.854Z,25.93
2022-11-20T22:20:58.735Z,26.13
2022-11-20T22:23:27.467Z,28.47
2022-11-20T22:25:56.182Z,26.87
2022-11-20T22:28:26.411Z,26.60
2022-11-20T22:30:59.043Z,30.03
2022-11-20T22:33:29.295Z,27.87
2022-11-20T22:36:10.364Z,27.63
2022-11-20T22:38:40.565Z,31.03
2022-11-20T22:41:11.930Z,29.13
2022-11-20T22:43:43.637Z,31.07
2022-11-20T22:46:14.516Z,29.47
2022-11-20T22:48:45.640Z,31.03
2022-11-20T22:51:16.810Z,27.20
2022-11-20T22:53:46.235Z,27.40
2022-11-20T22:56:16.708Z,30.77
2022-11-20T22:58:49.461Z,29.43
2022-11-20T23:01:20.283Z,29.83
2022-11-20T23:03:51.486Z,32.40
2022-11-20T23:06:22.723Z,34.20
2022-11-20T23:08:52.504Z,32.27
2022-11-20T23:11:24.576Z,32.57
2022-11-20T23:13:58.295Z,30.07
2022-11-20T23:16:29.259Z,29.33
2022-11-20T23:19:00.098Z,28.27
2022-11-20T23:21:29.822Z,25.73
2022-11-20T23:24:00.950Z,28.93
2022-11-20T23:26:31.839Z,23.07
2022-11-20T23:29:02.762Z,26.13
2022-11-20T23:31:33.704Z,25.10
2022-11-20T23:34:02.861Z,27.07
2022-11-20T23:36:32.132Z,24.70
2022-11-20T23:39:00.966Z,25.87
2022-11-20T23:41:29.718Z,25.23
2022-11-20T23:43:58.492Z,22.47
2022-11-20T23:46:28.681Z,24.57
2022-11-20T23:48:57.504Z,23.60
2022-11-20T23:51:26.314Z,22.33
2022-11-20T23:53:54.993Z,23.17
2022-11-20T23:56:23.807Z,24.30
2022-11-20T23:58:52.628Z,26.50
